sensor_id;sensor_type;location;lat;lon;timestamp;temperature;humidity
9448;DHT22;4762;48.128;11.376;2023-07-20T11:45:28;25.40;40.10
9448;DHT22;4762;48.128;11.376;2023-07-20T11:47:31;26.40;40.20
9448;DHT22;4762;48.128;11.376;2023-07-20T11:49:36;26.30;38.70
9448;DHT22;4762;48.128;11.376;2023-07-20T11:51:39;26.50;38.70
9448;DHT22;4762;48.128;11.376;2023-07-20T11:53:42;26.70;38.30
9448;DHT22;4762;48.128;11.376;2023-07-20T11:55:43;27.00;38.10
9448;DHT22;4762;48.128;11.376;2023-07-20T11:58:04;27.00;37.20
9448;DHT22;4762;48.128;11.376;2023-07-20T12:00:07;26.80;38.60
9448;DHT22;4762;48.128;11.376;2023-07-20T12:02:12;27.10;37.90
9448;DHT22;4762;48.128;11.376;2023-07-20T12:04:15;27.10;39.00
9448;DHT22;4762;48.128;11.376;2023-07-20T12:06:22;27.80;38.90
9448;DHT22;4762;48.128;11.376;2023-07-20T12:08:21;27.90;36.70
9448;DHT22;4762;48.128;11.376;2023-07-20T12:10:25;27.30;36.80
9448;DHT22;4762;48.128;11.376;2023-07-20T12:12:26;27.70;37.80
9448;DHT22;4762;48.128;11.376;2023-07-20T12:14:29;27.70;36.80
9448;DHT22;4762;48.128;11.376;2023-07-20T12:16:31;28.50;35.60
9448;DHT22;4762;48.128;11.376;2023-07-20T12:18:35;27.60;36.50
9448;DHT22;4762;48.128;11.376;2023-07-20T12:20:37;27.60;38.60
9448;DHT22;4762;48.128;11.376;2023-07-20T12:22:40;28.40;37.30
9448;DHT22;4762;48.128;11.376;2023-07-20T12:24:42;29.00;35.40
9448;DHT22;4762;48.128;11.376;2023-07-20T12:26:44;29.20;34.00
9448;DHT22;4762;48.128;11.376;2023-07-20T12:28:47;28.80;34.60
9448;DHT22;4762;48.128;11.376;2023-07-20T12:30:49;29.10;36.50
9448;DHT22;4762;48.128;11.376;2023-07-20T12:32:52;29.50;34.30
9448;DHT22;4762;48.128;11.376;2023-07-20T12:34:54;29.80;33.60
9448;DHT22;4762;48.128;11.376;2023-07-20T12:36:56;28.80;33.60
9448;DHT22;4762;48.128;11.376;2023-07-20T12:38:59;28.10;35.00
9448;DHT22;4762;48.128;11.376;2023-07-20T12:41:01;27.80;35.80
9448;DHT22;4762;48.128;11.376;2023-07-20T12:43:03;28.40;34.30
9448;DHT22;4762;48.128;11.376;2023-07-20T12:45:06;28.10;34.40
9448;DHT22;4762;48.128;11.376;2023-07-20T12:47:08;27.20;35.80
9448;DHT22;4762;48.128;11.376;2023-07-20T12:49:13;27.00;38.90
9448;DHT22;4762;48.128;11.376;2023-07-20T12:51:16;27.10;37.80
9448;DHT22;4762;48.128;11.376;2023-07-20T12:53:18;26.90;37.30
9448;DHT22;4762;48.128;11.376;2023-07-20T12:55:20;27.20;36.00
9448;DHT22;4762;48.128;11.376;2023-07-20T12:57:22;27.70;37.20
9448;DHT22;4762;48.128;11.376;2023-07-20T12:59:25;28.80;35.60
9448;DHT22;4762;48.128;11.376;2023-07-20T13:01:27;27.80;35.00
9448;DHT22;4762;48.128;11.376;2023-07-20T13:03:29;28.50;34.20
9448;DHT22;4762;48.128;11.376;2023-07-20T13:05:31;27.80;35.20
9448;DHT22;4762;48.128;11.376;2023-07-20T13:07:35;27.80;35.10
9448;DHT22;4762;48.128;11.376;2023-07-20T13:09:36;28.70;34.80
9448;DHT22;4762;48.128;11.376;2023-07-20T13:11:38;29.40;34.40
9448;DHT22;4762;48.128;11.376;2023-07-20T13:13:40;29.20;34.10
9448;DHT22;4762;48.128;11.376;2023-07-20T13:15:43;28.60;33.30
9448;DHT22;4762;48.128;11.376;2023-07-20T13:17:44;29.50;33.40
9448;DHT22;4762;48.128;11.376;2023-07-20T13:19:47;28.90;32.70
9448;DHT22;4762;48.128;11.376;2023-07-20T13:21:49;28.80;34.50
9448;DHT22;4762;48.128;11.376;2023-07-20T13:23:51;29.00;36.30
9448;DHT22;4762;48.128;11.376;2023-07-20T13:25:53;29.20;34.10
9448;DHT22;4762;48.128;11.376;2023-07-20T13:27:56;29.40;33.90
9448;DHT22;4762;48.128;11.376;2023-07-20T13:29:58;29.40;34.10
9448;DHT22;4762;48.128;11.376;2023-07-20T13:32:00;28.90;34.20
9448;DHT22;4762;48.128;11.376;2023-07-20T13:34:02;29.20;34.40
9448;DHT22;4762;48.128;11.376;2023-07-20T13:36:05;30.60;34.10
9448;DHT22;4762;48.128;11.376;2023-07-20T13:38:06;30.60;30.00
9448;DHT22;4762;48.128;11.376;2023-07-20T13:40:09;29.20;30.50
9448;DHT22;4762;48.128;11.376;2023-07-20T13:42:11;29.90;31.90
9448;DHT22;4762;48.128;11.376;2023-07-20T13:44:13;30.50;31.20
9448;DHT22;4762;48.128;11.376;2023-07-20T13:46:15;30.10;31.00
9448;DHT22;4762;48.128;11.376;2023-07-20T13:48:18;30.50;31.20
9448;DHT22;4762;48.128;11.376;2023-07-20T13:50:20;30.80;31.30
9448;DHT22;4762;48.128;11.376;2023-07-20T13:52:22;30.90;30.50
9448;DHT22;4762;48.128;11.376;2023-07-20T13:54:24;29.80;31.90
9448;DHT22;4762;48.128;11.376;2023-07-20T13:56:26;28.40;33.80
9448;DHT22;4762;48.128;11.376;2023-07-20T13:58:29;28.30;34.60
9448;DHT22;4762;48.128;11.376;2023-07-20T14:00:31;27.70;33.60
9448;DHT22;4762;48.128;11.376;2023-07-20T14:02:33;27.50;35.70
9448;DHT22;4762;48.128;11.376;2023-07-20T14:04:35;27.00;35.70
9448;DHT22;4762;48.128;11.376;2023-07-20T14:06:38;27.20;35.90
9448;DHT22;4762;48.128;11.376;2023-07-20T14:08:40;27.50;36.90
9448;DHT22;4762;48.128;11.376;2023-07-20T14:10:43;28.50;34.20
9448;DHT22;4762;48.128;11.376;2023-07-20T14:12:45;28.50;33.60
9448;DHT22;4762;48.128;11.376;2023-07-20T14:14:48;28.70;34.60
9448;DHT22;4762;48.128;11.376;2023-07-20T14:16:50;28.60;33.40
9448;DHT22;4762;48.128;11.376;2023-07-20T14:18:52;29.20;34.10
9448;DHT22;4762;48.128;11.376;2023-07-20T14:20:54;29.30;31.70
9448;DHT22;4762;48.128;11.376;2023-07-20T14:22:57;29.70;32.20
9448;DHT22;4762;48.128;11.376;2023-07-20T14:24:59;30.30;31.60
9448;DHT22;4762;48.128;11.376;2023-07-20T14:27:01;29.30;33.00
9448;DHT22;4762;48.128;11.376;2023-07-20T14:29:03;29.30;32.60
9448;DHT22;4762;48.128;11.376;2023-07-20T14:31:05;29.50;32.10
9448;DHT22;4762;48.128;11.376;2023-07-20T14:33:08;28.80;32.80
9448;DHT22;4762;48.128;11.376;2023-07-20T14:35:10;29.00;32.40
9448;DHT22;4762;48.128;11.376;2023-07-20T14:37:12;29.80;33.30
9448;DHT22;4762;48.128;11.376;2023-07-20T14:39:14;30.20;31.90
9448;DHT22;4762;48.128;11.376;2023-07-20T14:41:16;30.00;30.80
9448;DHT22;4762;48.128;11.376;2023-07-20T14:43:19;29.20;31.70
9448;DHT22;4762;48.128;11.376;2023-07-20T14:45:21;28.60;31.70
9448;DHT22;4762;48.128;11.376;2023-07-20T14:47:23;29.00;34.60
9448;DHT22;4762;48.128;11.376;2023-07-20T14:49:26;29.90;32.40
9448;DHT22;4762;48.128;11.376;2023-07-20T14:51:28;30.10;32.00
9448;DHT22;4762;48.128;11.376;2023-07-20T14:53:31;30.70;32.10
9448;DHT22;4762;48.128;11.376;2023-07-20T14:55:34;30.20;31.60
9448;DHT22;4762;48.128;11.376;2023-07-20T14:57:36;30.00;32.30
9448;DHT22;4762;48.128;11.376;2023-07-20T14:59:38;28.80;32.40
9448;DHT22;4762;48.128;11.376;2023-07-20T15:01:40;29.70;32.90
9448;DHT22;4762;48.128;11.376;2023-07-20T15:03:42;30.40;31.90
9448;DHT22;4762;48.128;11.376;2023-07-20T15:05:45;30.40;30.50
9448;DHT22;4762;48.128;11.376;2023-07-20T15:07:48;29.60;31.90
9448;DHT22;4762;48.128;11.376;2023-07-20T15:09:50;29.60;31.00
9448;DHT22;4762;48.128;11.376;2023-07-20T15:11:52;30.20;31.00
9448;DHT22;4762;48.128;11.376;2023-07-20T15:13:54;30.50;31.70
9448;DHT22;4762;48.128;11.376;2023-07-20T15:15:57;30.40;32.50
9448;DHT22;4762;48.128;11.376;2023-07-20T15:17:59;30.50;30.20
9448;DHT22;4762;48.128;11.376;2023-07-20T15:20:01;29.40;33.30
9448;DHT22;4762;48.128;11.376;2023-07-20T15:22:04;29.20;32.70
9448;DHT22;4762;48.128;11.376;2023-07-20T15:24:06;30.00;31.10
9448;DHT22;4762;48.128;11.376;2023-07-20T15:26:08;28.30;32.10
9448;DHT22;4762;48.128;11.376;2023-07-20T15:28:10;28.30;33.30
9448;DHT22;4762;48.128;11.376;2023-07-20T15:30:12;29.00;31.50
9448;DHT22;4762;48.128;11.376;2023-07-20T15:32:15;28.90;33.00
9448;DHT22;4762;48.128;11.376;2023-07-20T15:34:17;28.90;33.80
9448;DHT22;4762;48.128;11.376;2023-07-20T15:36:19;28.20;33.90
9448;DHT22;4762;48.128;11.376;2023-07-20T15:38:21;28.40;34.40
9448;DHT22;4762;48.128;11.376;2023-07-20T15:40:23;28.90;33.10
9448;DHT22;4762;48.128;11.376;2023-07-20T15:42:25;29.40;32.50
9448;DHT22;4762;48.128;11.376;2023-07-20T15:44:28;29.70;32.50
9448;DHT22;4762;48.128;11.376;2023-07-20T15:46:49;29.70;32.50
9448;DHT22;4762;48.128;11.376;2023-07-20T15:48:52;29.40;31.90
9448;DHT22;4762;48.128;11.376;2023-07-20T15:50:55;28.70;33.40
9448;DHT22;4762;48.128;11.376;2023-07-20T15:52:57;29.80;32.60
9448;DHT22;4762;48.128;11.376;2023-07-20T15:54:59;29.20;30.50
9448;DHT22;4762;48.128;11.376;2023-07-20T15:57:02;29.00;33.00
9448;DHT22;4762;48.128;11.376;2023-07-20T15:59:04;29.50;31.40
9448;DHT22;4762;48.128;11.376;2023-07-20T16:01:06;29.70;30.70
9448;DHT22;4762;48.128;11.376;2023-07-20T16:03:08;29.70;31.70
9448;DHT22;4762;48.128;11.376;2023-07-20T16:05:10;29.10;31.50
9448;DHT22;4762;48.128;11.376;2023-07-20T16:07:13;28.50;33.30
9448;DHT22;4762;48.128;11.376;2023-07-20T16:09:15;27.80;34.50
9448;DHT22;4762;48.128;11.376;2023-07-20T16:11:17;27.40;34.20
9448;DHT22;4762;48.128;11.376;2023-07-20T16:13:19;27.30;34.70
9448;DHT22;4762;48.128;11.376;2023-07-20T16:15:21;27.30;34.80
9448;DHT22;4762;48.128;11.376;2023-07-20T16:17:24;27.60;35.20
9448;DHT22;4762;48.128;11.376;2023-07-20T16:19:26;27.30;33.90
9448;DHT22;4762;48.128;11.376;2023-07-20T16:21:28;27.30;34.40
9448;DHT22;4762;48.128;11.376;2023-07-20T16:23:30;27.50;34.10
9448;DHT22;4762;48.128;11.376;2023-07-20T16:25:33;27.40;34.90
9448;DHT22;4762;48.128;11.376;2023-07-20T16:27:35;26.80;35.00
9448;DHT22;4762;48.128;11.376;2023-07-20T16:29:37;26.90;36.70
9448;DHT22;4762;48.128;11.376;2023-07-20T16:31:39;26.50;36.20
9448;DHT22;4762;48.128;11.376;2023-07-20T16:33:42;26.50;36.60
9448;DHT22;4762;48.128;11.376;2023-07-20T16:35:44;26.50;37.00
9448;DHT22;4762;48.128;11.376;2023-07-20T16:37:46;26.90;35.70
9448;DHT22;4762;48.128;11.376;2023-07-20T16:39:50;27.30;35.90
9448;DHT22;4762;48.128;11.376;2023-07-20T16:41:52;26.80;34.60
9448;DHT22;4762;48.128;11.376;2023-07-20T16:43:54;26.80;35.90
9448;DHT22;4762;48.128;11.376;2023-07-20T16:45:59;26.60;35.90
9448;DHT22;4762;48.128;11.376;2023-07-20T16:48:00;26.70;37.80
9448;DHT22;4762;48.128;11.376;2023-07-20T16:50:03;26.50;35.70
9448;DHT22;4762;48.128;11.376;2023-07-20T16:52:05;26.70;36.10
9448;DHT22;4762;48.128;11.376;2023-07-20T16:54:08;26.60;35.80
9448;DHT22;4762;48.128;11.376;2023-07-20T16:56:10;26.50;36.40
9448;DHT22;4762;48.128;11.376;2023-07-20T16:58:12;26.60;36.20
9448;DHT22;4762;48.128;11.376;2023-07-20T17:00:15;26.10;36.00
9448;DHT22;4762;48.128;11.376;2023-07-20T17:02:17;26.10;36.10
9448;DHT22;4762;48.128;11.376;2023-07-20T17:04:20;26.00;36.80
9448;DHT22;4762;48.128;11.376;2023-07-20T17:06:23;26.20;36.10
9448;DHT22;4762;48.128;11.376;2023-07-20T17:08:25;26.10;36.50
9448;DHT22;4762;48.128;11.376;2023-07-20T17:10:27;26.50;36.40
9448;DHT22;4762;48.128;11.376;2023-07-20T17:12:29;26.40;36.40
9448;DHT22;4762;48.128;11.376;2023-07-20T17:14:32;26.00;35.50
9448;DHT22;4762;48.128;11.376;2023-07-20T17:16:34;26.10;36.40
9448;DHT22;4762;48.128;11.376;2023-07-20T17:18:37;26.00;36.60
9448;DHT22;4762;48.128;11.376;2023-07-20T17:20:39;26.40;38.10
9448;DHT22;4762;48.128;11.376;2023-07-20T17:22:41;26.50;35.90
9448;DHT22;4762;48.128;11.376;2023-07-20T17:24:43;26.10;36.00
9448;DHT22;4762;48.128;11.376;2023-07-20T17:26:45;26.00;36.30
9448;DHT22;4762;48.128;11.376;2023-07-20T17:28:48;25.90;37.50
9448;DHT22;4762;48.128;11.376;2023-07-20T17:30:56;26.00;37.10
9448;DHT22;4762;48.128;11.376;2023-07-20T17:32:58;25.70;36.70
9448;DHT22;4762;48.128;11.376;2023-07-20T17:35:00;25.70;37.10
9448;DHT22;4762;48.128;11.376;2023-07-20T17:37:02;25.70;37.30
9448;DHT22;4762;48.128;11.376;2023-07-20T17:39:05;25.50;37.10
9448;DHT22;4762;48.128;11.376;2023-07-20T17:41:08;25.60;37.00
9448;DHT22;4762;48.128;11.376;2023-07-20T17:43:10;25.50;36.90
9448;DHT22;4762;48.128;11.376;2023-07-20T17:45:12;25.20;37.40
9448;DHT22;4762;48.128;11.376;2023-07-20T17:47:15;25.20;37.10
9448;DHT22;4762;48.128;11.376;2023-07-20T17:49:17;25.50;36.90
9448;DHT22;4762;48.128;11.376;2023-07-20T17:51:19;25.20;38.30
9448;DHT22;4762;48.128;11.376;2023-07-20T17:53:21;25.20;38.00
9448;DHT22;4762;48.128;11.376;2023-07-20T17:55:23;24.90;38.10
9448;DHT22;4762;48.128;11.376;2023-07-20T17:57:26;24.70;37.90
9448;DHT22;4762;48.128;11.376;2023-07-20T17:59:28;24.80;39.10
9448;DHT22;4762;48.128;11.376;2023-07-20T18:01:30;24.80;38.30
9448;DHT22;4762;48.128;11.376;2023-07-20T18:03:32;24.70;38.30
9448;DHT22;4762;48.128;11.376;2023-07-20T18:05:34;24.50;38.40
9448;DHT22;4762;48.128;11.376;2023-07-20T18:07:37;24.60;38.50
9448;DHT22;4762;48.128;11.376;2023-07-20T18:09:39;24.40;38.30
9448;DHT22;4762;48.128;11.376;2023-07-20T18:11:41;24.50;38.60
9448;DHT22;4762;48.128;11.376;2023-07-20T18:13:43;24.40;38.50
9448;DHT22;4762;48.128;11.376;2023-07-20T18:15:51;24.30;39.10
9448;DHT22;4762;48.128;11.376;2023-07-20T18:17:48;24.10;39.00
9448;DHT22;4762;48.128;11.376;2023-07-20T18:19:50;24.10;39.80
9448;DHT22;4762;48.128;11.376;2023-07-20T18:21:52;24.00;39.50
9448;DHT22;4762;48.128;11.376;2023-07-20T18:23:54;24.00;40.40
9448;DHT22;4762;48.128;11.376;2023-07-20T18:25:56;23.90;40.20
9448;DHT22;4762;48.128;11.376;2023-07-20T18:27:59;23.90;40.00
9448;DHT22;4762;48.128;11.376;2023-07-20T18:30:01;23.60;40.10
9448;DHT22;4762;48.128;11.376;2023-07-20T18:32:03;23.60;40.30
9448;DHT22;4762;48.128;11.376;2023-07-20T18:34:05;23.50;40.60
9448;DHT22;4762;48.128;11.376;2023-07-20T18:36:08;23.40;40.80
9448;DHT22;4762;48.128;11.376;2023-07-20T18:38:10;23.50;41.00
9448;DHT22;4762;48.128;11.376;2023-07-20T18:40:12;23.40;40.80
9448;DHT22;4762;48.128;11.376;2023-07-20T18:42:14;23.20;41.50
9448;DHT22;4762;48.128;11.376;2023-07-20T18:44:16;23.10;41.70
9448;DHT22;4762;48.128;11.376;2023-07-20T18:46:19;23.10;41.50
9448;DHT22;4762;48.128;11.376;2023-07-20T18:48:21;23.10;43.00
9448;DHT22;4762;48.128;11.376;2023-07-20T18:50:23;23.10;41.80
9448;DHT22;4762;48.128;11.376;2023-07-20T18:52:25;23.10;41.90
9448;DHT22;4762;48.128;11.376;2023-07-20T18:54:27;23.00;42.20
9448;DHT22;4762;48.128;11.376;2023-07-20T18:56:30;23.00;42.60
9448;DHT22;4762;48.128;11.376;2023-07-20T18:58:32;23.00;43.20
9448;DHT22;4762;48.128;11.376;2023-07-20T19:00:34;22.80;42.80
9448;DHT22;4762;48.128;11.376;2023-07-20T19:02:37;22.90;42.90
9448;DHT22;4762;48.128;11.376;2023-07-20T19:04:39;22.90;43.50
9448;DHT22;4762;48.128;11.376;2023-07-20T19:06:42;22.80;43.90
9448;DHT22;4762;48.128;11.376;2023-07-20T19:08:44;22.70;43.40
9448;DHT22;4762;48.128;11.376;2023-07-20T19:10:47;22.70;44.60
9448;DHT22;4762;48.128;11.376;2023-07-20T19:12:49;22.70;43.70
9448;DHT22;4762;48.128;11.376;2023-07-20T19:14:51;22.60;44.90
9448;DHT22;4762;48.128;11.376;2023-07-20T19:16:53;22.60;44.50
9448;DHT22;4762;48.128;11.376;2023-07-20T19:18:55;22.50;44.20
9448;DHT22;4762;48.128;11.376;2023-07-20T19:21:00;22.40;44.90
9448;DHT22;4762;48.128;11.376;2023-07-20T19:23:03;22.40;44.90
9448;DHT22;4762;48.128;11.376;2023-07-20T19:25:05;22.20;45.00
9448;DHT22;4762;48.128;11.376;2023-07-20T19:27:08;22.20;46.60
9448;DHT22;4762;48.128;11.376;2023-07-20T19:29:10;22.20;45.40
9448;DHT22;4762;48.128;11.376;2023-07-20T19:31:12;22.10;45.60
9448;DHT22;4762;48.128;11.376;2023-07-20T19:33:15;22.00;45.20
9448;DHT22;4762;48.128;11.376;2023-07-20T19:35:17;22.00;45.90
9448;DHT22;4762;48.128;11.376;2023-07-20T19:37:20;21.90;45.10
9448;DHT22;4762;48.128;11.376;2023-07-20T19:39:22;21.90;45.40
9448;DHT22;4762;48.128;11.376;2023-07-20T19:41:24;22.00;45.40
9448;DHT22;4762;48.128;11.376;2023-07-20T19:43:26;22.00;45.20
9448;DHT22;4762;48.128;11.376;2023-07-20T19:45:29;22.00;45.20
9448;DHT22;4762;48.128;11.376;2023-07-20T19:47:31;22.00;44.70
9448;DHT22;4762;48.128;11.376;2023-07-20T19:49:34;22.00;45.40
9448;DHT22;4762;48.128;11.376;2023-07-20T19:51:36;21.90;45.10
9448;DHT22;4762;48.128;11.376;2023-07-20T19:53:38;21.90;45.50
9448;DHT22;4762;48.128;11.376;2023-07-20T19:55:40;21.90;45.40
9448;DHT22;4762;48.128;11.376;2023-07-20T19:57:42;21.80;45.60
9448;DHT22;4762;48.128;11.376;2023-07-20T19:59:45;21.70;45.50
9448;DHT22;4762;48.128;11.376;2023-07-20T20:01:47;21.60;45.70
9448;DHT22;4762;48.128;11.376;2023-07-20T20:03:49;21.50;45.60
9448;DHT22;4762;48.128;11.376;2023-07-20T20:05:51;21.50;46.30
9448;DHT22;4762;48.128;11.376;2023-07-20T20:07:54;21.40;46.10
9448;DHT22;4762;48.128;11.376;2023-07-20T20:09:56;21.20;47.00
9448;DHT22;4762;48.128;11.376;2023-07-20T20:11:58;21.20;47.50
9448;DHT22;4762;48.128;11.376;2023-07-20T20:14:00;21.20;49.00
9448;DHT22;4762;48.128;11.376;2023-07-20T20:16:03;21.10;49.50
9448;DHT22;4762;48.128;11.376;2023-07-20T20:18:06;20.80;50.50
9448;DHT22;4762;48.128;11.376;2023-07-20T20:20:08;20.60;50.90
9448;DHT22;4762;48.128;11.376;2023-07-20T20:22:10;20.60;50.10
9448;DHT22;4762;48.128;11.376;2023-07-20T20:24:14;20.60;50.30
9448;DHT22;4762;48.128;11.376;2023-07-20T20:26:16;20.60;51.00
9448;DHT22;4762;48.128;11.376;2023-07-20T20:28:18;20.50;51.50
9448;DHT22;4762;48.128;11.376;2023-07-20T20:30:22;20.40;51.60
9448;DHT22;4762;48.128;11.376;2023-07-20T20:32:25;20.40;51.80
9448;DHT22;4762;48.128;11.376;2023-07-20T20:34:27;20.40;52.30
9448;DHT22;4762;48.128;11.376;2023-07-20T20:36:29;20.30;52.30
9448;DHT22;4762;48.128;11.376;2023-07-20T20:38:33;20.20;53.60
9448;DHT22;4762;48.128;11.376;2023-07-20T20:40:44;20.10;53.50
9448;DHT22;4762;48.128;11.376;2023-07-20T20:42:46;20.10;53.30
9448;DHT22;4762;48.128;11.376;2023-07-20T20:44:48;20.00;55.50
9448;DHT22;4762;48.128;11.376;2023-07-20T20:46:52;19.90;55.10
9448;DHT22;4762;48.128;11.376;2023-07-20T20:48:54;19.90;56.10
9448;DHT22;4762;48.128;11.376;2023-07-20T20:50:58;19.80;56.20
9448;DHT22;4762;48.128;11.376;2023-07-20T20:53:00;19.80;56.70
9448;DHT22;4762;48.128;11.376;2023-07-20T20:55:02;19.70;57.60
9448;DHT22;4762;48.128;11.376;2023-07-20T20:57:04;19.70;56.70
9448;DHT22;4762;48.128;11.376;2023-07-20T20:59:06;19.60;57.30
9448;DHT22;4762;48.128;11.376;2023-07-20T21:01:09;19.50;57.80
9448;DHT22;4762;48.128;11.376;2023-07-20T21:03:11;19.40;58.20
9448;DHT22;4762;48.128;11.376;2023-07-20T21:05:15;19.30;59.40
9448;DHT22;4762;48.128;11.376;2023-07-20T21:07:17;19.20;58.70
9448;DHT22;4762;48.128;11.376;2023-07-20T21:09:19;19.20;59.60
9448;DHT22;4762;48.128;11.376;2023-07-20T21:11:22;19.20;60.00
9448;DHT22;4762;48.128;11.376;2023-07-20T21:13:24;19.20;59.60
9448;DHT22;4762;48.128;11.376;2023-07-20T21:15:26;19.20;59.10
9448;DHT22;4762;48.128;11.376;2023-07-20T21:17:28;19.10;60.00
9448;DHT22;4762;48.128;11.376;2023-07-20T21:19:31;19.10;60.10
9448;DHT22;4762;48.128;11.376;2023-07-20T21:21:33;19.00;61.00
9448;DHT22;4762;48.128;11.376;2023-07-20T21:23:35;19.00;60.70
9448;DHT22;4762;48.128;11.376;2023-07-20T21:25:37;18.80;61.70
9448;DHT22;4762;48.128;11.376;2023-07-20T21:27:39;18.80;61.50
9448;DHT22;4762;48.128;11.376;2023-07-20T21:29:42;18.80;61.60
9448;DHT22;4762;48.128;11.376;2023-07-20T21:31:44;18.80;62.80
9448;DHT22;4762;48.128;11.376;2023-07-20T21:33:46;18.80;61.90
9448;DHT22;4762;48.128;11.376;2023-07-20T21:35:48;18.80;62.10
9448;DHT22;4762;48.128;11.376;2023-07-20T21:37:50;18.80;62.80
9448;DHT22;4762;48.128;11.376;2023-07-20T21:39:53;18.70;64.50
9448;DHT22;4762;48.128;11.376;2023-07-20T21:41:55;18.60;64.90
9448;DHT22;4762;48.128;11.376;2023-07-20T21:43:57;18.50;65.40
9448;DHT22;4762;48.128;11.376;2023-07-20T21:45:59;18.40;65.90
9448;DHT22;4762;48.128;11.376;2023-07-20T21:48:02;18.40;65.80
9448;DHT22;4762;48.128;11.376;2023-07-20T21:50:04;18.30;66.80
9448;DHT22;4762;48.128;11.376;2023-07-20T21:52:07;18.30;67.10
9448;DHT22;4762;48.128;11.376;2023-07-20T21:54:09;18.30;67.00
9448;DHT22;4762;48.128;11.376;2023-07-20T21:56:11;18.20;67.80
9448;DHT22;4762;48.128;11.376;2023-07-20T21:58:13;18.10;68.90
9448;DHT22;4762;48.128;11.376;2023-07-20T22:00:15;18.00;70.20
9448;DHT22;4762;48.128;11.376;2023-07-20T22:02:18;18.00;69.90
9448;DHT22;4762;48.128;11.376;2023-07-20T22:04:20;17.90;71.10
9448;DHT22;4762;48.128;11.376;2023-07-20T22:06:22;17.80;71.10
9448;DHT22;4762;48.128;11.376;2023-07-20T22:08:24;17.80;72.80
9448;DHT22;4762;48.128;11.376;2023-07-20T22:10:27;17.80;73.70
9448;DHT22;4762;48.128;11.376;2023-07-20T22:12:30;17.70;73.70
9448;DHT22;4762;48.128;11.376;2023-07-20T22:14:32;17.60;74.70
9448;DHT22;4762;48.128;11.376;2023-07-20T22:16:34;17.60;75.50
9448;DHT22;4762;48.128;11.376;2023-07-20T22:18:37;17.60;74.60
9448;DHT22;4762;48.128;11.376;2023-07-20T22:20:40;17.50;76.10
9448;DHT22;4762;48.128;11.376;2023-07-20T22:22:42;17.40;76.10
9448;DHT22;4762;48.128;11.376;2023-07-20T22:24:45;17.40;77.40
9448;DHT22;4762;48.128;11.376;2023-07-20T22:26:48;17.30;78.50
9448;DHT22;4762;48.128;11.376;2023-07-20T22:28:50;17.30;78.80
9448;DHT22;4762;48.128;11.376;2023-07-20T22:30:56;17.20;78.00
9448;DHT22;4762;48.128;11.376;2023-07-20T22:32:55;17.20;77.20
9448;DHT22;4762;48.128;11.376;2023-07-20T22:34:58;17.20;76.00
9448;DHT22;4762;48.128;11.376;2023-07-20T22:37:00;17.20;77.50
9448;DHT22;4762;48.128;11.376;2023-07-20T22:39:04;17.20;77.10
9448;DHT22;4762;48.128;11.376;2023-07-20T22:41:06;17.10;79.30
9448;DHT22;4762;48.128;11.376;2023-07-20T22:43:08;17.10;77.70
9448;DHT22;4762;48.128;11.376;2023-07-20T22:45:19;17.10;77.60
9448;DHT22;4762;48.128;11.376;2023-07-20T22:49:50;16.90;80.60
9448;DHT22;4762;48.128;11.376;2023-07-20T22:52:01;16.90;81.10
9448;DHT22;4762;48.128;11.376;2023-07-20T22:54:28;16.80;82.50
9448;DHT22;4762;48.128;11.376;2023-07-20T22:56:32;16.80;83.10
9448;DHT22;4762;48.128;11.376;2023-07-20T22:58:34;16.80;82.60
9448;DHT22;4762;48.128;11.376;2023-07-20T23:00:36;16.80;82.60
9448;DHT22;4762;48.128;11.376;2023-07-20T23:02:39;16.80;81.60
9448;DHT22;4762;48.128;11.376;2023-07-20T23:04:41;16.80;82.00
9448;DHT22;4762;48.128;11.376;2023-07-20T23:06:43;16.80;83.00
9448;DHT22;4762;48.128;11.376;2023-07-20T23:08:46;16.80;81.50
9448;DHT22;4762;48.128;11.376;2023-07-20T23:10:49;16.80;81.30
9448;DHT22;4762;48.128;11.376;2023-07-20T23:12:52;16.80;83.30
9448;DHT22;4762;48.128;11.376;2023-07-20T23:14:55;16.90;81.50
9448;DHT22;4762;48.128;11.376;2023-07-20T23:17:00;16.90;81.70
9448;DHT22;4762;48.128;11.376;2023-07-20T23:19:02;16.90;82.70
9448;DHT22;4762;48.128;11.376;2023-07-20T23:21:05;16.90;82.90
9448;DHT22;4762;48.128;11.376;2023-07-20T23:23:09;16.90;81.90
9448;DHT22;4762;48.128;11.376;2023-07-20T23:25:11;16.80;84.50
9448;DHT22;4762;48.128;11.376;2023-07-20T23:27:14;16.80;83.20
9448;DHT22;4762;48.128;11.376;2023-07-20T23:29:17;16.80;83.80
9448;DHT22;4762;48.128;11.376;2023-07-20T23:31:21;16.80;86.40
9448;DHT22;4762;48.128;11.376;2023-07-20T23:33:25;16.80;82.70
9448;DHT22;4762;48.128;11.376;2023-07-20T23:35:28;16.80;85.60
9448;DHT22;4762;48.128;11.376;2023-07-20T23:37:33;16.70;86.00
9448;DHT22;4762;48.128;11.376;2023-07-20T23:39:35;16.70;85.50
9448;DHT22;4762;48.128;11.376;2023-07-20T23:41:39;16.70;88.20
9448;DHT22;4762;48.128;11.376;2023-07-20T23:43:42;16.70;84.90
9448;DHT22;4762;48.128;11.376;2023-07-20T23:45:45;16.70;87.40
9448;DHT22;4762;48.128;11.376;2023-07-20T23:47:50;16.60;88.60
9448;DHT22;4762;48.128;11.376;2023-07-20T23:49:52;16.60;89.60
9448;DHT22;4762;48.128;11.376;2023-07-20T23:51:54;16.50;87.70
9448;DHT22;4762;48.128;11.376;2023-07-20T23:53:57;16.50;89.10
9448;DHT22;4762;48.128;11.376;2023-07-20T23:56:00;16.50;89.10
9448;DHT22;4762;48.128;11.376;2023-07-20T23:58:03;16.40;90.50
